createdAt,value
2019-04-01T00:01:34.680Z,35.58
2019-04-01T00:04:03.792Z,36.55
2019-04-01T00:06:33.100Z,37.60
2019-04-01T00:09:02.499Z,37.95
2019-04-01T00:11:31.789Z,37.05
2019-04-01T00:14:01.396Z,37.00
2019-04-01T00:16:31.312Z,39.53
2019-04-01T00:19:03.269Z,41.60
2019-04-01T00:21:32.269Z,39.67
2019-04-01T00:24:01.315Z,38.83
2019-04-01T00:26:30.656Z,38.53
2019-04-01T00:29:00.061Z,40.27
2019-04-01T00:31:29.364Z,38.50
2019-04-01T00:33:58.766Z,40.67
2019-04-01T00:36:28.064Z,39.70
2019-04-01T00:38:57.036Z,42.30
2019-04-01T00:41:26.076Z,39.95
2019-04-01T00:44:01.327Z,43.10
2019-04-01T00:46:32.028Z,40.60
2019-04-01T00:49:01.432Z,44.38
2019-04-01T00:51:30.511Z,41.40
2019-04-01T00:53:59.773Z,42.17
2019-04-01T00:56:29.135Z,41.60
2019-04-01T00:58:58.516Z,41.65
2019-04-01T01:01:27.575Z,42.70
2019-04-01T01:03:56.908Z,42.85
2019-04-01T01:06:26.213Z,41.75
2019-04-01T01:08:55.820Z,42.83
2019-04-01T01:11:25.524Z,41.18
2019-04-01T01:13:55.116Z,42.45
2019-04-01T01:16:24.779Z,42.55
2019-04-01T01:18:54.179Z,42.20
2019-04-01T01:21:23.400Z,42.35
2019-04-01T01:23:52.379Z,42.13
2019-04-01T01:26:21.448Z,43.50
2019-04-01T01:28:50.499Z,43.20
2019-04-01T01:31:20.125Z,43.90
2019-04-01T01:33:49.837Z,43.73
2019-04-01T01:36:19.152Z,43.93
2019-04-01T01:38:48.052Z,42.67
2019-04-01T01:41:17.637Z,43.20
2019-04-01T01:43:46.981Z,44.73
2019-04-01T01:46:16.648Z,45.33
2019-04-01T01:48:45.913Z,43.33
2019-04-01T01:51:15.552Z,44.13
2019-04-01T01:53:44.855Z,45.20
2019-04-01T01:56:14.251Z,44.60
2019-04-01T01:58:43.491Z,45.83
2019-04-01T02:01:13.290Z,45.67
2019-04-01T02:03:42.973Z,45.45
2019-04-01T02:06:12.026Z,43.78
2019-04-01T02:08:42.531Z,45.52
2019-04-01T02:11:11.591Z,44.98
2019-04-01T02:13:40.828Z,45.50
2019-04-01T02:16:10.232Z,45.28
2019-04-01T02:18:39.790Z,45.12
2019-04-01T02:21:09.152Z,44.63
2019-04-01T02:23:38.393Z,48.73
2019-04-01T02:26:07.798Z,47.10
2019-04-01T02:28:37.400Z,47.23
2019-04-01T02:31:06.665Z,46.33
2019-04-01T02:33:35.717Z,45.30
2019-04-01T02:36:05.154Z,45.97
2019-04-01T02:38:34.417Z,47.40
2019-04-01T02:41:03.898Z,44.85
2019-04-01T02:43:32.852Z,46.65
2019-04-01T02:46:01.896Z,44.48
2019-04-01T02:48:31.205Z,45.33
2019-04-01T02:51:01.220Z,47.38
2019-04-01T02:53:30.602Z,45.80
2019-04-01T02:55:59.981Z,44.18
2019-04-01T02:58:28.942Z,46.13
2019-04-01T03:00:58.395Z,45.37
2019-04-01T03:03:27.431Z,44.83
2019-04-01T03:05:57.404Z,44.98
2019-04-01T03:08:27.118Z,45.75
2019-04-01T03:10:56.165Z,43.78
2019-04-01T03:13:25.206Z,44.42
2019-04-01T03:15:54.815Z,44.90
2019-04-01T03:18:23.933Z,46.40
2019-04-01T03:20:53.225Z,45.80
2019-04-01T03:23:22.204Z,44.80
2019-04-01T03:25:51.973Z,45.60
2019-04-01T03:28:21.613Z,45.52
2019-04-01T03:30:51.024Z,47.38
2019-04-01T03:33:19.996Z,46.90
2019-04-01T03:35:49.044Z,46.95
2019-04-01T03:38:19.118Z,45.70
2019-04-01T03:40:48.361Z,45.65
2019-04-01T03:43:18.221Z,44.55
2019-04-01T03:45:47.385Z,45.83
2019-04-01T03:48:16.432Z,46.85
2019-04-01T03:50:45.519Z,45.48
2019-04-01T03:53:14.936Z,44.88
2019-04-01T03:55:44.349Z,46.95
2019-04-01T03:58:13.734Z,46.25
2019-04-01T04:00:43.121Z,45.78
2019-04-01T04:03:12.484Z,45.10
2019-04-01T04:05:41.609Z,46.18
2019-04-01T04:08:10.984Z,45.00
2019-04-01T04:10:40.834Z,47.23
2019-04-01T04:13:10.557Z,48.35
2019-04-01T04:15:40.160Z,46.83
2019-04-01T04:18:09.566Z,48.55
2019-04-01T04:20:38.955Z,49.67
2019-04-01T04:23:08.285Z,47.75
2019-04-01T04:25:37.343Z,49.30
2019-04-01T04:28:06.754Z,49.03
2019-04-01T04:30:36.090Z,48.38
2019-04-01T04:33:05.158Z,47.05
2019-04-01T04:35:34.558Z,47.78
2019-04-01T04:38:04.455Z,47.43
2019-04-01T04:40:33.762Z,48.20
2019-04-01T04:43:03.487Z,48.68
2019-04-01T04:45:32.535Z,47.60
2019-04-01T04:48:02.031Z,48.63
2019-04-01T04:50:31.064Z,49.37
2019-04-01T04:53:00.551Z,46.18
2019-04-01T04:55:29.999Z,47.30
2019-04-01T04:57:59.775Z,48.15
2019-04-01T05:00:29.175Z,47.08
2019-04-01T05:02:58.223Z,46.47
2019-04-01T05:05:27.837Z,47.30
2019-04-01T05:07:56.879Z,50.23
2019-04-01T05:10:26.319Z,49.60
2019-04-01T05:12:55.986Z,48.45
2019-04-01T05:15:25.723Z,47.98
2019-04-01T05:17:55.505Z,48.90
2019-04-01T05:20:24.628Z,46.80
2019-04-01T05:22:55.124Z,45.03
2019-04-01T05:25:26.201Z,46.57
2019-04-01T05:27:56.901Z,45.23
2019-04-01T05:30:27.874Z,47.13
2019-04-01T05:32:58.468Z,44.40
2019-04-01T05:35:28.437Z,48.23
2019-04-01T05:37:57.925Z,47.30
2019-04-01T05:40:27.540Z,47.58
2019-04-01T05:42:56.596Z,46.90
2019-04-01T05:45:25.649Z,48.70
2019-04-01T05:47:55.253Z,46.60
2019-04-01T05:50:25.194Z,44.88
2019-04-01T05:52:54.271Z,44.53
2019-04-01T05:55:23.719Z,44.20
2019-04-01T05:57:53.411Z,46.28
2019-04-01T06:00:28.664Z,45.98
2019-04-01T06:02:57.715Z,45.58
2019-04-01T06:05:26.761Z,46.30
2019-04-01T06:07:55.793Z,44.03
2019-04-01T06:10:25.144Z,43.83
2019-04-01T06:12:54.549Z,44.63
2019-04-01T06:15:24.288Z,44.73
2019-04-01T06:17:53.660Z,43.20
2019-04-01T06:20:22.717Z,41.47
2019-04-01T06:22:52.148Z,40.43
2019-04-01T06:25:21.254Z,41.27
2019-04-01T06:27:50.352Z,40.20
2019-04-01T06:30:19.756Z,43.05
2019-04-01T06:32:49.449Z,42.27
2019-04-01T06:35:18.501Z,43.50
2019-04-01T06:37:47.835Z,37.17
2019-04-01T06:40:16.942Z,37.03
2019-04-01T06:42:45.892Z,36.50
2019-04-01T06:45:14.949Z,38.57
2019-04-01T06:47:43.976Z,36.43
2019-04-01T06:50:13.030Z,35.43
2019-04-01T06:52:42.409Z,35.20
2019-04-01T06:55:11.738Z,35.17
2019-04-01T06:57:41.123Z,36.23
2019-04-01T07:00:10.284Z,36.50
2019-04-01T07:02:39.904Z,36.50
2019-04-01T07:05:12.304Z,34.50
2019-04-01T07:07:40.453Z,34.40
2019-04-01T07:10:09.509Z,36.37
2019-04-01T07:12:38.844Z,36.00
2019-04-01T07:15:08.458Z,33.37
2019-04-01T07:17:38.079Z,34.80
2019-04-01T07:20:08.904Z,35.87
2019-04-01T07:22:37.984Z,33.60
2019-04-01T07:25:07.051Z,33.83
2019-04-01T07:27:36.903Z,33.10
2019-04-01T07:30:07.135Z,35.10
2019-04-01T07:32:37.037Z,33.03
2019-04-01T07:35:06.744Z,35.53
2019-04-01T07:37:36.361Z,32.97
2019-04-01T07:40:06.564Z,35.80
2019-04-01T07:42:35.906Z,32.87
2019-04-01T07:45:06.117Z,33.87
2019-04-01T07:47:35.305Z,32.40
2019-04-01T07:50:05.002Z,33.53
2019-04-01T07:52:34.044Z,32.90
2019-04-01T07:55:03.635Z,34.00
2019-04-01T07:57:33.121Z,32.80
2019-04-01T08:00:02.173Z,33.83
2019-04-01T08:02:31.859Z,32.27
2019-04-01T08:05:00.913Z,36.60
2019-04-01T08:07:29.956Z,34.30
2019-04-01T08:09:59.297Z,32.90
2019-04-01T08:12:28.351Z,32.00
2019-04-01T08:14:57.564Z,31.87
2019-04-01T08:17:26.612Z,32.10
2019-04-01T08:19:56.010Z,33.03
2019-04-01T08:22:25.068Z,33.03
2019-04-01T08:24:54.559Z,30.70
2019-04-01T08:27:23.619Z,31.60
2019-04-01T08:29:52.968Z,31.37
2019-04-01T08:32:22.373Z,32.47
2019-04-01T08:34:51.672Z,29.33
2019-04-01T08:37:20.712Z,33.00
2019-04-01T08:39:50.152Z,31.83
2019-04-01T08:42:19.481Z,29.60
2019-04-01T08:44:48.879Z,31.33
2019-04-01T08:47:18.475Z,32.57
2019-04-01T08:49:47.813Z,30.73
2019-04-01T08:52:17.191Z,31.50
2019-04-01T08:54:46.584Z,30.97
2019-04-01T08:57:16.692Z,29.30
2019-04-01T08:59:46.889Z,31.73
2019-04-01T09:02:18.128Z,30.00
2019-04-01T09:04:47.004Z,29.93
2019-04-01T09:07:16.057Z,30.87
2019-04-01T09:09:46.193Z,31.30
2019-04-01T09:12:16.120Z,31.50
2019-04-01T09:14:45.653Z,30.50
2019-04-01T09:17:14.973Z,30.97
2019-04-01T09:19:43.991Z,31.70
2019-04-01T09:22:13.075Z,28.43
2019-04-01T09:24:42.401Z,30.67
2019-04-01T09:27:11.380Z,29.67
2019-04-01T09:29:41.076Z,28.63
2019-04-01T09:32:10.121Z,29.13
2019-04-01T09:34:39.801Z,27.33
2019-04-01T09:37:09.215Z,29.30
2019-04-01T09:39:38.894Z,31.93
2019-04-01T09:42:08.395Z,29.50
2019-04-01T09:44:37.900Z,28.90
2019-04-01T09:47:07.306Z,30.03
2019-04-01T09:49:37.011Z,29.50
2019-04-01T09:52:06.615Z,29.27
2019-04-01T09:54:36.087Z,29.30
2019-04-01T09:57:16.809Z,28.10
2019-04-01T09:59:36.385Z,28.77
2019-04-01T10:02:05.466Z,29.40
2019-04-01T10:04:34.755Z,28.27
2019-04-01T10:07:03.835Z,28.40
2019-04-01T10:09:33.475Z,25.40
2019-04-01T10:12:02.457Z,27.23
2019-04-01T10:14:31.351Z,27.60
2019-04-01T10:17:00.422Z,26.00
2019-04-01T10:19:29.479Z,27.27
2019-04-01T10:21:59.132Z,27.17
2019-04-01T10:24:28.536Z,27.40
2019-04-01T10:26:58.422Z,26.40
2019-04-01T10:29:27.479Z,26.00
2019-04-01T10:31:56.498Z,27.40
2019-04-01T10:34:25.840Z,26.17
2019-04-01T10:36:55.142Z,27.93
2019-04-01T10:39:24.489Z,29.00
2019-04-01T10:41:53.736Z,26.60
2019-04-01T10:44:23.038Z,29.87
2019-04-01T10:46:52.690Z,28.07
2019-04-01T10:49:22.485Z,27.97
2019-04-01T10:51:51.865Z,28.60
2019-04-01T10:54:21.136Z,28.20
2019-04-01T10:56:50.145Z,28.17
2019-04-01T10:59:19.460Z,28.00
2019-04-01T11:01:48.993Z,28.10
2019-04-01T11:04:19.015Z,28.20
2019-04-01T11:06:48.129Z,27.47
2019-04-01T11:09:17.583Z,28.97
2019-04-01T11:12:05.754Z,27.17
2019-04-01T11:14:35.113Z,28.67
2019-04-01T11:17:04.747Z,26.80
2019-04-01T11:19:53.060Z,28.60
2019-04-01T11:22:22.460Z,27.80
2019-04-01T11:24:52.075Z,26.90
2019-04-01T11:27:21.390Z,28.30
2019-04-01T11:29:50.773Z,28.13
2019-04-01T11:32:19.837Z,29.17
2019-04-01T11:34:49.482Z,26.97
2019-04-01T11:37:18.899Z,29.73
2019-04-01T11:39:48.734Z,26.13
2019-04-01T11:42:18.416Z,29.77
2019-04-01T11:44:48.106Z,27.90
2019-04-01T11:47:17.140Z,28.30
2019-04-01T11:49:46.520Z,27.50
2019-04-01T11:52:16.065Z,27.03
2019-04-01T11:54:45.618Z,27.80
2019-04-01T11:57:15.013Z,26.97
2019-04-01T11:59:44.367Z,26.00
2019-04-01T12:02:13.744Z,27.30
2019-04-01T12:04:42.796Z,28.73
2019-04-01T12:07:12.212Z,27.73
2019-04-01T12:09:41.859Z,28.43
2019-04-01T12:12:22.921Z,28.07
2019-04-01T12:14:41.601Z,26.77
2019-04-01T12:17:10.935Z,27.13
2019-04-01T12:19:40.698Z,25.70
2019-04-01T12:22:11.176Z,27.00
2019-04-01T12:24:40.802Z,26.57
2019-04-01T12:27:10.500Z,25.47
2019-04-01T12:29:40.579Z,25.83
2019-04-01T12:32:09.718Z,27.50
2019-04-01T12:34:42.063Z,26.23
2019-04-01T12:37:10.868Z,26.27
2019-04-01T12:39:40.972Z,27.77
2019-04-01T12:42:10.907Z,28.07
2019-04-01T12:44:41.388Z,28.10
2019-04-01T12:47:11.217Z,26.93
2019-04-01T12:49:40.843Z,27.43
2019-04-01T12:52:09.997Z,28.00
2019-04-01T12:54:39.224Z,26.60
2019-04-01T12:57:08.535Z,27.13
2019-04-01T12:59:38.152Z,28.03
2019-04-01T13:02:07.212Z,26.17
2019-04-01T13:04:36.554Z,26.70
2019-04-01T13:07:05.821Z,26.67
2019-04-01T13:09:35.361Z,25.80
2019-04-01T13:12:04.455Z,25.30
2019-04-01T13:14:33.744Z,26.33
2019-04-01T13:17:02.807Z,27.57
2019-04-01T13:19:32.136Z,25.67
2019-04-01T13:22:01.118Z,27.47
2019-04-01T13:24:30.742Z,27.57
2019-04-01T13:27:00.309Z,25.53
2019-04-01T13:29:29.753Z,27.90
2019-04-01T13:32:00.654Z,27.00
2019-04-01T13:34:30.294Z,27.07
2019-04-01T13:36:59.589Z,26.60
2019-04-01T13:39:29.592Z,25.97
2019-04-01T13:41:58.940Z,26.13
2019-04-01T13:44:36.971Z,27.97
2019-04-01T13:46:59.496Z,26.80
2019-04-01T13:49:29.266Z,27.97
2019-04-01T13:51:59.542Z,27.50
2019-04-01T13:54:29.984Z,27.57
2019-04-01T13:56:59.024Z,28.20
2019-04-01T13:59:28.005Z,28.67
2019-04-01T14:01:57.354Z,27.50
2019-04-01T14:04:27.302Z,27.00
2019-04-01T14:06:56.853Z,27.17
2019-04-01T14:09:26.222Z,24.83
2019-04-01T14:11:55.647Z,25.03
2019-04-01T14:14:24.701Z,27.60
2019-04-01T14:16:54.020Z,27.83
2019-04-01T14:19:23.249Z,26.57
2019-04-01T14:21:52.955Z,26.00
2019-04-01T14:24:21.937Z,27.60
2019-04-01T14:26:51.341Z,28.07
2019-04-01T14:29:20.383Z,27.53
2019-04-01T14:31:49.961Z,27.70
2019-04-01T14:34:23.180Z,29.30
2019-04-01T14:36:49.861Z,27.73
2019-04-01T14:39:19.559Z,28.63
2019-04-01T14:41:48.603Z,27.83
2019-04-01T14:44:18.184Z,26.53
2019-04-01T14:46:47.557Z,26.43
2019-04-01T14:49:16.520Z,27.43
2019-04-01T14:51:45.843Z,27.80
2019-04-01T14:54:14.803Z,27.17
2019-04-01T14:56:44.140Z,26.97
2019-04-01T14:59:13.575Z,28.20
2019-04-01T15:01:43.292Z,26.20
2019-04-01T15:04:12.660Z,27.57
2019-04-01T15:06:41.768Z,27.30
2019-04-01T15:09:11.663Z,27.30
2019-04-01T15:11:41.252Z,26.07
2019-04-01T15:14:11.705Z,26.37
2019-04-01T15:16:41.045Z,26.87
2019-04-01T15:19:12.771Z,26.47
2019-04-01T15:21:42.356Z,28.47
2019-04-01T15:24:11.405Z,25.20
2019-04-01T15:26:41.060Z,30.93
2019-04-01T15:29:10.356Z,26.07
2019-04-01T15:31:39.663Z,25.13
2019-04-01T15:34:09.450Z,23.77
2019-04-01T15:36:38.994Z,26.30
2019-04-01T15:39:10.119Z,26.20
2019-04-01T15:41:39.177Z,25.40
2019-04-01T15:44:09.229Z,24.37
2019-04-01T15:46:38.702Z,24.83
2019-04-01T15:49:11.102Z,23.53
2019-04-01T15:51:39.067Z,24.73
2019-04-01T15:54:08.372Z,25.47
2019-04-01T15:56:37.421Z,23.73
2019-04-01T15:59:06.478Z,25.07
2019-04-01T16:01:36.167Z,24.17
2019-04-01T16:04:05.593Z,22.73
2019-04-01T16:06:34.688Z,27.80
2019-04-01T16:09:05.398Z,24.50
2019-04-01T16:11:34.532Z,24.50
2019-04-01T16:14:03.594Z,24.33
2019-04-01T16:16:32.880Z,24.70
2019-04-01T16:19:02.293Z,26.60
2019-04-01T16:21:32.001Z,24.07
2019-04-01T16:24:01.299Z,24.30
2019-04-01T16:26:30.603Z,24.67
2019-04-01T16:28:59.811Z,25.13
2019-04-01T16:31:29.201Z,24.70
2019-04-01T16:33:58.497Z,24.83
2019-04-01T16:36:27.537Z,23.93
2019-04-01T16:38:56.894Z,23.87
2019-04-01T16:41:26.283Z,25.00
2019-04-01T16:43:55.322Z,24.80
2019-04-01T16:46:24.448Z,23.67
2019-04-01T16:48:54.152Z,25.67
2019-04-01T16:51:23.192Z,25.90
2019-04-01T16:53:52.249Z,24.80
2019-04-01T16:56:21.214Z,24.40
2019-04-01T16:58:50.264Z,24.10
2019-04-01T17:01:19.325Z,24.27
2019-04-01T17:03:48.906Z,26.10
2019-04-01T17:06:18.573Z,25.30
2019-04-01T17:08:47.628Z,25.43
2019-04-01T17:11:16.964Z,26.30
2019-04-01T17:13:46.009Z,23.10
2019-04-01T17:16:15.031Z,24.73
2019-04-01T17:18:44.456Z,24.27
2019-04-01T17:21:13.504Z,25.27
2019-04-01T17:23:42.951Z,25.50
2019-04-01T17:26:12.589Z,25.60
2019-04-01T17:28:42.270Z,24.57
2019-04-01T17:31:11.689Z,27.00
2019-04-01T17:33:41.070Z,25.50
2019-04-01T17:36:11.169Z,23.90
2019-04-01T17:38:40.933Z,24.40
2019-04-01T17:41:10.609Z,23.73
2019-04-01T17:43:40.621Z,24.13
2019-04-01T17:46:09.976Z,26.03
2019-04-01T17:48:39.105Z,26.20
2019-04-01T17:51:08.380Z,23.77
2019-04-01T17:53:37.748Z,25.47
2019-04-01T17:56:07.215Z,22.77
2019-04-01T17:58:36.259Z,22.30
2019-04-01T18:01:05.721Z,24.30
2019-04-01T18:03:35.128Z,24.20
2019-04-01T18:06:04.084Z,22.80
2019-04-01T18:08:34.220Z,23.07
2019-04-01T18:11:03.991Z,23.00
2019-04-01T18:13:32.965Z,23.20
2019-04-01T18:16:02.361Z,22.83
2019-04-01T18:18:34.046Z,23.60
2019-04-01T18:21:03.474Z,24.10
2019-04-01T18:23:33.244Z,22.97
2019-04-01T18:26:02.262Z,22.57
2019-04-01T18:28:31.304Z,23.80
2019-04-01T18:31:00.449Z,22.13
2019-04-01T18:33:30.400Z,22.77
2019-04-01T18:35:59.661Z,25.40
2019-04-01T18:38:29.036Z,23.00
2019-04-01T18:40:58.364Z,23.13
2019-04-01T18:43:28.252Z,23.13
2019-04-01T18:45:57.912Z,21.50
2019-04-01T18:48:27.257Z,23.87
2019-04-01T18:50:56.324Z,22.87
2019-04-01T18:53:28.380Z,23.17
2019-04-01T18:55:56.665Z,23.43
2019-04-01T18:58:26.687Z,22.87
2019-04-01T19:00:56.489Z,21.80
2019-04-01T19:03:25.821Z,25.17
2019-04-01T19:05:55.257Z,24.07
2019-04-01T19:08:24.621Z,26.37
2019-04-01T19:11:02.153Z,29.80
2019-04-01T19:13:25.078Z,24.73
2019-04-01T19:15:55.505Z,25.67
2019-04-01T19:18:25.172Z,24.57
2019-04-01T19:20:56.863Z,22.50
2019-04-01T19:23:25.716Z,23.37
2019-04-01T19:25:55.205Z,23.70
2019-04-01T19:28:25.104Z,22.30
2019-04-01T19:30:54.146Z,22.50
2019-04-01T19:33:23.738Z,22.73
2019-04-01T19:35:52.708Z,21.37
2019-04-01T19:38:21.970Z,21.83
2019-04-01T19:40:52.163Z,22.97
2019-04-01T19:43:21.477Z,21.23
2019-04-01T19:45:50.966Z,23.50
2019-04-01T19:48:20.347Z,24.40
2019-04-01T19:50:50.070Z,22.53
2019-04-01T19:53:24.188Z,25.03
2019-04-01T19:55:53.230Z,23.77
2019-04-01T19:58:22.273Z,25.47
2019-04-01T20:00:51.468Z,24.43
2019-04-01T20:03:21.129Z,23.87
2019-04-01T20:05:50.475Z,23.80
2019-04-01T20:08:19.765Z,24.37
2019-04-01T20:10:49.273Z,23.87
2019-04-01T20:13:18.674Z,24.10
2019-04-01T20:15:48.073Z,23.10
2019-04-01T20:18:17.807Z,23.17
2019-04-01T20:20:47.083Z,24.13
2019-04-01T20:23:16.103Z,25.60
2019-04-01T20:25:48.626Z,22.30
2019-04-01T20:28:16.514Z,22.70
2019-04-01T20:30:45.908Z,24.07
2019-04-01T20:33:18.216Z,23.17
2019-04-01T20:35:46.070Z,23.87
2019-04-01T20:38:15.368Z,24.93
2019-04-01T20:40:44.440Z,22.30
2019-04-01T20:43:15.106Z,23.77
2019-04-01T20:46:03.270Z,25.50
2019-04-01T20:48:33.249Z,24.87
2019-04-01T20:51:03.069Z,24.27
2019-04-01T20:53:32.451Z,23.80
2019-04-01T20:56:01.489Z,24.17
2019-04-01T20:58:30.379Z,24.40
2019-04-01T21:00:59.685Z,24.30
2019-04-01T21:03:30.181Z,23.37
2019-04-01T21:05:59.360Z,22.67
2019-04-01T21:08:28.652Z,24.80
2019-04-01T21:10:57.948Z,24.10
2019-04-01T21:13:27.567Z,24.27
2019-04-01T21:15:56.516Z,23.60
2019-04-01T21:18:25.788Z,22.23
2019-04-01T21:20:55.152Z,22.43
2019-04-01T21:23:24.461Z,23.57
2019-04-01T21:25:54.055Z,21.40
2019-04-01T21:28:24.913Z,21.30
2019-04-01T21:30:54.309Z,23.80
2019-04-01T21:33:24.007Z,22.77
2019-04-01T21:35:53.716Z,22.30
2019-04-01T21:38:23.143Z,25.37
2019-04-01T21:40:52.331Z,25.60
2019-04-01T21:43:21.625Z,23.10
2019-04-01T21:45:51.226Z,24.85
2019-04-01T21:48:20.929Z,25.60
2019-04-01T21:50:50.244Z,23.70
2019-04-01T21:53:19.502Z,23.52
2019-04-01T21:55:48.728Z,24.18
2019-04-01T21:58:18.069Z,21.83
2019-04-01T22:00:54.086Z,20.97
2019-04-01T22:03:23.497Z,22.40
2019-04-01T22:06:12.318Z,22.27
2019-04-01T22:08:41.388Z,23.07
2019-04-01T22:11:10.421Z,23.40
2019-04-01T22:13:39.680Z,23.07
2019-04-01T22:16:09.041Z,21.93
2019-04-01T22:18:38.631Z,22.20
2019-04-01T22:21:08.041Z,21.53
2019-04-01T22:23:37.349Z,21.60
2019-04-01T22:26:07.049Z,21.73
2019-04-01T22:28:36.454Z,22.67
2019-04-01T22:31:05.483Z,22.63
2019-04-01T22:33:34.745Z,22.30
2019-04-01T22:36:04.143Z,21.07
2019-04-01T22:38:35.195Z,21.10
2019-04-01T22:41:04.580Z,22.63
2019-04-01T22:43:33.990Z,21.70
2019-04-01T22:46:03.702Z,21.60
2019-04-01T22:48:33.510Z,22.37
2019-04-01T22:51:02.560Z,23.73
2019-04-01T22:53:32.365Z,20.80
2019-04-01T22:56:03.165Z,23.40
2019-04-01T22:58:33.165Z,22.20
2019-04-01T23:01:02.461Z,22.07
2019-04-01T23:03:32.073Z,21.40
2019-04-01T23:06:01.482Z,21.13
2019-04-01T23:08:31.216Z,22.60
2019-04-01T23:11:01.092Z,20.97
2019-04-01T23:13:30.701Z,21.57
2019-04-01T23:16:00.300Z,20.90
2019-04-01T23:18:30.235Z,21.43
2019-04-01T23:20:59.197Z,20.47
2019-04-01T23:23:28.376Z,20.77
2019-04-01T23:25:58.045Z,21.40
2019-04-01T23:28:27.786Z,21.47
2019-04-01T23:30:57.127Z,21.47
2019-04-01T23:33:26.948Z,20.80
2019-04-01T23:35:56.444Z,19.67
2019-04-01T23:38:25.846Z,21.17
2019-04-01T23:40:55.457Z,20.50
2019-04-01T23:43:26.041Z,21.00
2019-04-01T23:45:55.485Z,20.73
2019-04-01T23:48:24.469Z,19.93
2019-04-01T23:50:53.490Z,19.53
2019-04-01T23:53:22.872Z,19.10
2019-04-01T23:55:51.924Z,20.00
2019-04-01T23:58:22.343Z,20.50
